Time;durP1;ratioP1;P1;durP2;ratioP2;P2;SDS_P1;SDS_P2;PMS_P1;PMS_P2;Temp;Humidity;BMP_temperature;BMP_pressure;BME280_temperature;BME280_humidity;BME280_pressure;Samples;Min_cycle;Max_cycle;Signal;HPM_P1;HPM_P2
2023/06/05 00:00:24;;;;;;;;;5.33;4.33;;;;;19.43;52.96;101717.97;5030604;28;47737;-71
2023/06/05 00:02:49;;;;;;;;;5.00;3.67;;;;;19.44;52.84;101719.66;5048174;28;45482;-71
2023/06/05 00:05:15;;;;;;;;;3.00;2.33;;;;;19.39;53.22;101718.25;5042989;28;45501;-71
2023/06/05 00:07:41;;;;;;;;;6.00;4.00;;;;;19.29;53.39;101709.97;5055270;28;45667;-71
2023/06/05 00:10:07;;;;;;;;;5.00;4.33;;;;;19.31;54.30;101713.41;5033864;28;47805;-71
2023/06/05 00:12:34;;;;;;;;;4.00;4.00;;;;;19.16;53.60;101696.56;5040578;28;45390;-71
2023/06/05 00:15:01;;;;;;;;;2.00;2.00;;;;;19.22;53.78;101711.34;5041830;28;45276;-71
2023/06/05 00:17:27;;;;;;;;;5.33;4.00;;;;;19.18;52.93;101705.34;5040886;28;45189;-71
2023/06/05 00:19:52;;;;;;;;;6.00;4.00;;;;;19.20;53.13;101711.47;5049716;28;45257;-71
2023/06/05 00:22:18;;;;;;;;;4.33;4.33;;;;;19.09;52.97;101703.28;5021484;28;45283;-71
2023/06/05 00:24:43;;;;;;;;;3.67;3.67;;;;;18.99;52.94;101698.66;5047697;28;45298;-71
2023/06/05 00:27:08;;;;;;;;;4.67;4.33;;;;;18.84;53.09;101679.13;5056647;28;45327;-71
2023/06/05 00:29:34;;;;;;;;;5.67;3.33;;;;;19.01;53.44;101719.03;5042558;28;47143;-71
2023/06/05 00:31:59;;;;;;;;;7.00;3.00;;;;;19.01;53.35;101720.88;5050560;28;45311;-71
2023/06/05 00:34:25;;;;;;;;;3.67;3.67;;;;;18.94;53.77;101716.88;5040238;28;45516;-71
2023/06/05 00:36:50;;;;;;;;;5.00;4.67;;;;;18.95;53.85;101715.91;5045130;28;45882;-71
2023/06/05 00:39:18;;;;;;;;;5.00;3.00;;;;;18.85;54.06;101701.44;5045099;28;46119;-72
2023/06/05 00:41:45;;;;;;;;;4.00;4.00;;;;;18.88;54.09;101728.88;5053386;28;45285;-72
2023/06/05 00:44:10;;;;;;;;;4.00;4.00;;;;;18.80;54.27;101722.31;5047435;28;45415;-71
2023/06/05 00:46:37;;;;;;;;;4.67;3.00;;;;;18.78;54.97;101721.56;5045105;28;45288;-71
2023/06/05 00:49:02;;;;;;;;;7.33;6.33;;;;;18.67;53.62;101709.72;5042368;28;46989;-72
2023/06/05 00:51:28;;;;;;;;;6.00;5.00;;;;;18.70;54.82;101725.59;5036092;28;45387;-71
2023/06/05 00:53:54;;;;;;;;;3.00;3.00;;;;;18.62;54.88;101710.97;5036180;28;45716;-71
2023/06/05 00:56:20;;;;;;;;;7.00;4.00;;;;;18.56;53.66;101696.19;5044801;28;45557;-71
2023/06/05 00:58:47;;;;;;;;;5.00;3.67;;;;;18.59;53.85;101716.53;5039737;28;45433;-71
2023/06/05 01:01:14;;;;;;;;;6.33;6.33;;;;;18.57;53.54;101715.78;5052321;28;46201;-71
2023/06/05 01:03:40;;;;;;;;;6.67;5.00;;;;;18.57;54.48;101718.47;5051352;28;45554;-72
2023/06/05 01:06:05;;;;;;;;;3.33;3.33;;;;;18.53;55.29;101706.22;5041894;28;45283;-72
2023/06/05 01:08:38;;;;;;;;;4.67;4.67;;;;;18.58;55.76;101725.56;5045146;28;46220;-71
2023/06/05 01:11:09;;;;;;;;;4.00;4.00;;;;;18.50;54.56;101722.50;5037897;28;45410;-71
2023/06/05 01:13:39;;;;;;;;;3.00;3.00;;;;;18.42;55.24;101711.41;5042318;28;45550;-71
2023/06/05 01:16:05;;;;;;;;;4.67;4.33;;;;;18.44;55.44;101718.41;5042157;28;45925;-71
2023/06/05 01:18:32;;;;;;;;;6.00;5.00;;;;;18.45;55.42;101719.25;5033979;28;46732;-71
2023/06/05 01:21:01;;;;;;;;;7.00;6.00;;;;;18.36;55.21;101709.97;5047634;28;45310;-71
2023/06/05 01:23:29;;;;;;;;;4.67;3.33;;;;;18.29;55.36;101713.19;5043684;28;45331;-71
2023/06/05 01:25:59;;;;;;;;;7.00;5.00;;;;;18.31;55.44;101730.00;5030477;28;45434;-71
2023/06/05 01:28:30;;;;;;;;;6.00;4.00;;;;;18.23;55.27;101711.72;5050166;28;45367;-72
2023/06/05 01:31:08;;;;;;;;;4.00;4.00;;;;;18.25;56.16;101733.94;5030671;28;45602;-71
2023/06/05 01:33:44;;;;;;;;;9.67;5.33;;;;;18.05;56.05;101705.75;5018856;28;45485;-71
2023/06/05 01:36:11;;;;;;;;;4.67;4.00;;;;;18.21;56.71;101740.44;5021615;28;45352;-71
2023/06/05 01:38:39;;;;;;;;;4.00;4.00;;;;;18.02;57.32;101707.78;5055254;28;45342;-71
2023/06/05 01:41:05;;;;;;;;;5.00;5.00;;;;;18.06;57.40;101722.69;5024857;28;45429;-72
2023/06/05 01:43:33;;;;;;;;;5.00;3.67;;;;;18.03;57.21;101723.72;5041079;28;45371;-72
2023/06/05 01:45:59;;;;;;;;;3.00;3.00;;;;;18.05;57.74;101723.63;5050830;28;45399;-72
2023/06/05 01:48:30;;;;;;;;;3.67;3.67;;;;;17.89;56.90;101706.84;5047591;28;46437;-72
2023/06/05 01:50:56;;;;;;;;;6.00;5.00;;;;;17.89;58.31;101715.72;5038975;28;45434;-71
2023/06/05 01:53:22;;;;;;;;;5.67;5.67;;;;;17.87;58.19;101716.75;5040334;28;47297;-71
2023/06/05 01:55:48;;;;;;;;;7.00;4.00;;;;;17.83;57.81;101712.56;5048887;28;45443;-71
2023/06/05 01:58:13;;;;;;;;;6.00;5.00;;;;;17.77;58.10;101712.97;5048963;28;45327;-73
2023/06/05 02:00:39;;;;;;;;;7.00;6.00;;;;;17.70;58.86;101704.47;5048335;28;45331;-72
2023/06/05 02:03:04;;;;;;;;;9.67;6.00;;;;;17.62;58.65;101691.56;5038592;28;45271;-73
2023/06/05 02:05:30;;;;;;;;;4.00;4.00;;;;;17.73;59.00;101712.28;5043815;28;45353;-73
2023/06/05 02:07:58;;;;;;;;;4.67;4.67;;;;;17.69;59.08;101714.28;5043535;28;46274;-72
2023/06/05 02:10:24;;;;;;;;;5.67;5.00;;;;;17.67;59.31;101707.28;5052694;28;45250;-73
2023/06/05 02:12:50;;;;;;;;;4.00;4.00;;;;;17.55;59.84;101694.66;5043389;28;45435;-72
2023/06/05 02:15:16;;;;;;;;;9.33;5.00;;;;;17.62;60.19;101707.59;5045647;28;45549;-72
2023/06/05 02:17:49;;;;;;;;;4.33;2.33;;;;;17.52;59.73;101701.06;5037295;28;45655;-73
2023/06/05 02:20:17;;;;;;;;;4.67;4.00;;;;;17.53;59.85;101709.94;5050263;28;45381;-72
2023/06/05 02:22:44;;;;;;;;;5.67;4.33;;;;;17.33;59.93;101686.25;5045341;28;45550;-73
2023/06/05 02:25:13;;;;;;;;;6.67;6.00;;;;;17.40;60.44;101707.19;5053713;28;45537;-72
2023/06/05 02:27:39;;;;;;;;;4.33;4.33;;;;;17.37;60.50;101706.50;5049371;28;46287;-72
2023/06/05 02:30:05;;;;;;;;;8.33;7.00;;;;;17.19;60.28;101687.06;5030519;28;46066;-72
2023/06/05 02:32:31;;;;;;;;;6.67;5.00;;;;;17.31;61.80;101704.22;5051983;28;45244;-72
2023/06/05 02:34:57;;;;;;;;;5.00;5.00;;;;;17.28;61.88;101701.69;5042044;28;45430;-72
2023/06/05 02:37:27;;;;;;;;;4.00;4.00;;;;;17.23;61.50;101693.09;5047433;28;47223;-73
2023/06/05 02:39:52;;;;;;;;;6.00;6.00;;;;;17.18;62.35;101693.38;5046629;28;45385;-72
2023/06/05 02:42:19;;;;;;;;;3.00;1.00;;;;;17.14;62.44;101694.53;5049781;28;45264;-73
2023/06/05 02:44:45;;;;;;;;;6.33;6.33;;;;;17.07;62.46;101693.16;5060159;28;45443;-71
2023/06/05 02:47:11;;;;;;;;;8.00;6.33;;;;;17.08;62.66;101703.75;5043163;28;45980;-72
2023/06/05 02:49:37;;;;;;;;;7.67;6.00;;;;;17.06;62.63;101713.69;5047123;28;45256;-72
2023/06/05 02:52:03;;;;;;;;;10.33;6.67;;;;;17.05;63.64;101697.72;5035429;28;45340;-72
2023/06/05 02:54:28;;;;;;;;;7.00;5.00;;;;;16.98;63.57;101689.22;5056430;28;45589;-72
2023/06/05 02:56:56;;;;;;;;;8.00;6.00;;;;;16.99;64.39;101704.31;5045520;28;45552;-72
2023/06/05 02:59:24;;;;;;;;;8.00;6.67;;;;;16.89;63.74;101708.47;5055122;28;45270;-72
2023/06/05 03:01:53;;;;;;;;;5.33;4.67;;;;;16.81;65.11;101689.38;5045364;28;45273;-72
2023/06/05 03:04:21;;;;;;;;;6.00;5.00;;;;;16.83;64.51;101690.13;5048486;28;45388;-72
2023/06/05 03:06:50;;;;;;;;;7.33;7.00;;;;;16.67;64.88;101671.50;5041575;28;45334;-72
2023/06/05 03:09:16;;;;;;;;;6.67;5.00;;;;;16.82;65.00;101698.25;5041247;28;45999;-72
2023/06/05 03:11:41;;;;;;;;;8.00;7.00;;;;;16.80;65.51;101700.13;5048815;28;45378;-72
2023/06/05 03:14:07;;;;;;;;;8.00;8.00;;;;;16.75;65.41;101696.91;5035989;28;45701;-72
2023/06/05 03:16:41;;;;;;;;;6.67;6.67;;;;;16.75;65.41;101703.09;5030093;28;47508;-72
2023/06/05 03:19:08;;;;;;;;;3.67;3.67;;;;;16.69;65.97;101703.44;5042994;28;45516;-72
2023/06/05 03:21:39;;;;;;;;;6.00;6.00;;;;;16.53;66.15;101681.19;5040833;28;45678;-72
2023/06/05 03:24:06;;;;;;;;;7.00;7.00;;;;;16.67;66.65;101708.88;5033548;28;45693;-72
2023/06/05 03:26:32;;;;;;;;;7.33;5.00;;;;;16.67;66.76;101700.00;5042833;28;45472;-72
2023/06/05 03:28:58;;;;;;;;;5.00;5.00;;;;;16.65;66.59;101704.59;5046535;28;45315;-72
2023/06/05 03:31:23;;;;;;;;;10.67;9.33;;;;;16.60;66.78;101712.00;5053715;28;45377;-72
2023/06/05 03:33:48;;;;;;;;;10.00;8.00;;;;;16.52;67.00;101699.03;5048354;28;45507;-72
2023/06/05 03:36:17;;;;;;;;;6.33;6.33;;;;;16.49;67.02;101698.38;5040619;28;46577;-72
2023/06/05 03:38:46;;;;;;;;;6.67;6.67;;;;;16.54;67.21;101712.31;5052385;28;45412;-72
2023/06/05 03:41:11;;;;;;;;;6.67;5.67;;;;;16.47;67.95;101697.59;5048334;28;45374;-72
2023/06/05 03:43:37;;;;;;;;;6.33;6.33;;;;;16.44;67.94;101703.97;5038357;28;45724;-72
2023/06/05 03:46:02;;;;;;;;;8.00;6.00;;;;;16.44;67.99;101695.09;5051354;28;45960;-72
2023/06/05 03:48:28;;;;;;;;;8.67;8.67;;;;;16.48;68.69;101704.66;5048740;28;45412;-72
2023/06/05 03:50:55;;;;;;;;;6.00;6.00;;;;;16.42;68.93;101691.66;5041168;28;45508;-72
2023/06/05 03:53:22;;;;;;;;;5.33;5.33;;;;;16.44;68.73;101705.78;5039233;28;45319;-72
2023/06/05 03:55:51;;;;;;;;;6.00;6.00;;;;;16.41;69.19;101706.81;5046112;28;45693;-72
2023/06/05 03:58:19;;;;;;;;;4.67;3.33;;;;;16.38;69.23;101703.47;5047921;28;46981;-72
2023/06/05 04:00:46;;;;;;;;;7.00;7.00;;;;;16.24;69.25;101698.03;5051453;28;45289;-72
2023/06/05 04:03:12;;;;;;;;;9.33;7.00;;;;;16.27;69.50;101708.53;5039438;28;45493;-72
2023/06/05 04:05:39;;;;;;;;;11.67;9.33;;;;;16.26;70.80;101712.16;5043879;28;45478;-72
2023/06/05 04:08:11;;;;;;;;;9.00;8.00;;;;;16.29;69.67;101714.66;5048430;28;45213;-72
2023/06/05 04:10:38;;;;;;;;;7.67;7.33;;;;;16.29;71.15;101714.66;5048216;28;45245;-72
2023/06/05 04:13:03;;;;;;;;;8.00;8.00;;;;;16.17;70.62;101700.19;5052400;28;45366;-72
2023/06/05 04:15:29;;;;;;;;;7.67;6.33;;;;;16.24;70.97;101712.25;5046781;28;45277;-72
2023/06/05 04:17:55;;;;;;;;;8.67;8.33;;;;;16.24;71.20;101722.91;5047958;28;45398;-72
2023/06/05 04:20:21;;;;;;;;;12.33;8.67;;;;;16.21;71.81;101711.53;5014078;28;45717;-72
2023/06/05 04:22:46;;;;;;;;;10.00;8.33;;;;;16.22;71.45;101718.63;5021094;28;46972;-72
2023/06/05 04:25:12;;;;;;;;;9.33;7.33;;;;;16.23;71.40;101715.84;5046649;28;45558;-72
2023/06/05 04:27:42;;;;;;;;;8.33;8.00;;;;;16.21;71.96;101719.56;5047778;28;45328;-72
2023/06/05 04:30:09;;;;;;;;;9.33;7.33;;;;;16.19;72.11;101727.66;5051751;28;45429;-72
2023/06/05 04:32:39;;;;;;;;;9.00;9.00;;;;;16.19;72.11;101724.13;5042950;28;45623;-72
2023/06/05 04:35:05;;;;;;;;;6.00;6.00;;;;;16.23;72.60;101731.88;5027384;28;46356;-72
2023/06/05 04:37:31;;;;;;;;;8.00;8.00;;;;;16.21;72.81;101725.75;5044696;28;46148;-72
2023/06/05 04:39:58;;;;;;;;;13.67;11.67;;;;;16.24;72.64;101727.38;5048474;28;45327;-72
2023/06/05 04:42:23;;;;;;;;;14.67;11.33;;;;;16.25;72.38;101723.78;5046512;28;45433;-72
2023/06/05 04:45:03;;;;;;;;;8.67;8.67;;;;;16.29;72.39;101726.22;5042968;28;46502;-72
2023/06/05 04:47:29;;;;;;;;;10.00;8.00;;;;;16.32;72.83;101734.03;5044285;28;45326;-72
2023/06/05 04:49:54;;;;;;;;;12.33;10.00;;;;;16.34;72.35;101734.81;5046547;28;45652;-72
2023/06/05 04:52:21;;;;;;;;;14.00;10.67;;;;;16.32;72.84;101734.03;5048427;28;45306;-72
2023/06/05 04:54:47;;;;;;;;;10.67;9.00;;;;;16.36;72.36;101738.22;5040275;28;45438;-72
2023/06/05 04:57:12;;;;;;;;;11.67;9.00;;;;;16.39;72.50;101735.38;5023469;28;46025;-72
2023/06/05 04:59:37;;;;;;;;;10.00;9.00;;;;;16.47;72.96;101742.97;5027449;28;45255;-72
2023/06/05 05:02:03;;;;;;;;;9.33;9.33;;;;;16.29;72.75;101709.31;5022922;28;45831;-72
2023/06/05 05:04:29;;;;;;;;;9.33;8.33;;;;;16.48;72.87;101734.91;5021793;28;45315;-72
2023/06/05 05:07:01;;;;;;;;;13.00;11.67;;;;;16.49;72.64;101730.41;5026191;28;45293;-72
2023/06/05 05:09:35;;;;;;;;;13.00;12.00;;;;;16.60;72.16;101738.69;5028150;28;45358;-72
2023/06/05 05:12:00;;;;;;;;;11.33;10.00;;;;;16.65;73.23;101734.81;5032132;28;45535;-72
2023/06/05 05:14:29;;;;;;;;;12.00;9.33;;;;;16.61;73.46;101727.94;5019307;28;46427;-72
2023/06/05 05:16:57;;;;;;;;;11.67;9.67;;;;;16.74;72.04;101738.78;5017779;28;45926;-72
2023/06/05 05:19:22;;;;;;;;;10.67;10.67;;;;;16.74;71.10;101728.09;5024265;28;45438;-72
2023/06/05 05:21:48;;;;;;;;;11.00;10.00;;;;;16.82;71.63;101741.84;5039699;28;45843;-72
2023/06/05 05:24:14;;;;;;;;;11.67;8.67;;;;;16.87;71.36;101739.78;5026942;28;46198;-72
2023/06/05 05:26:40;;;;;;;;;13.67;11.00;;;;;16.85;71.04;101725.63;5013157;28;45301;-72
2023/06/05 05:29:08;;;;;;;;;13.00;10.00;;;;;16.99;72.46;101740.84;5018711;28;46008;-72
2023/06/05 05:31:34;;;;;;;;;11.00;9.67;;;;;17.04;71.76;101728.09;5018252;28;45334;-72
2023/06/05 05:33:59;;;;;;;;;11.00;11.00;;;;;17.06;70.58;101719.03;5018779;28;46018;-72
2023/06/05 05:36:26;;;;;;;;;14.33;12.67;;;;;17.13;70.54;101725.75;5018455;28;45273;-72
2023/06/05 05:38:52;;;;;;;;;14.67;13.33;;;;;17.28;70.83;101737.31;5014933;28;45644;-72
2023/06/05 05:41:17;;;;;;;;;10.33;9.33;;;;;17.34;69.60;101734.25;5021832;28;45357;-72
2023/06/05 05:43:43;;;;;;;;;11.67;10.33;;;;;17.36;68.45;101744.88;5019556;28;48154;-72
2023/06/05 05:46:08;;;;;;;;;12.33;11.33;;;;;17.30;69.67;101731.88;5016093;28;45788;-72
2023/06/05 05:48:37;;;;;;;;;12.67;11.00;;;;;17.47;68.48;101742.44;5016060;28;45279;-72
2023/06/05 05:51:04;;;;;;;;;15.67;11.67;;;;;17.48;69.32;101744.13;5016450;28;45724;-72
2023/06/05 05:53:29;;;;;;;;;12.00;9.67;;;;;17.45;69.37;101733.63;5017909;28;45529;-72
2023/06/05 05:55:55;;;;;;;;;13.67;11.67;;;;;17.58;68.32;101737.31;5014738;28;45284;-72
2023/06/05 05:58:20;;;;;;;;;11.67;11.67;;;;;17.64;68.29;101743.13;5033024;28;45509;-72
2023/06/05 06:00:47;;;;;;;;;16.33;13.67;;;;;17.72;68.33;101740.00;5042314;28;45237;-72
2023/06/05 06:03:13;;;;;;;;;12.33;11.33;;;;;17.79;68.98;101745.81;5040056;28;46177;-72
2023/06/05 06:05:39;;;;;;;;;13.33;13.33;;;;;17.80;69.34;101742.22;5035377;28;46301;-72
2023/06/05 06:08:06;;;;;;;;;10.00;10.00;;;;;17.93;69.61;101756.53;5041946;28;45527;-71
2023/06/05 06:10:31;;;;;;;;;9.33;9.33;;;;;17.98;68.87;101757.09;5039024;28;45479;-71
2023/06/05 06:12:56;;;;;;;;;12.00;12.00;;;;;18.05;66.74;101758.44;5041846;28;46448;-71
2023/06/05 06:15:22;;;;;;;;;12.00;9.67;;;;;18.13;67.53;101761.47;5036258;28;45462;-72
2023/06/05 06:17:48;;;;;;;;;9.33;9.00;;;;;18.13;67.37;101762.34;5041673;28;45316;-72
2023/06/05 06:20:15;;;;;;;;;10.67;10.33;;;;;18.20;67.90;101755.66;5039273;28;46064;-72
2023/06/05 06:22:41;;;;;;;;;9.00;9.00;;;;;18.29;65.65;101767.56;5041205;28;45287;-73
2023/06/05 06:25:10;;;;;;;;;14.00;11.67;;;;;18.14;65.83;101739.97;5026574;28;45638;-73
2023/06/05 06:27:36;;;;;;;;;17.00;13.67;;;;;18.22;65.41;101740.31;5023980;28;45462;-73
2023/06/05 06:30:02;;;;;;;;;12.33;10.33;;;;;18.28;65.30;101738.22;5041738;28;45475;-73
2023/06/05 06:32:27;;;;;;;;;12.00;10.67;;;;;18.52;67.06;101758.13;5044187;28;45445;-73
2023/06/05 06:34:54;;;;;;;;;11.67;9.00;;;;;18.62;66.39;101764.56;5046611;28;45254;-73
2023/06/05 06:37:20;;;;;;;;;14.33;13.00;;;;;18.67;64.13;101759.78;5053373;28;45447;-73
2023/06/05 06:39:46;;;;;;;;;9.33;9.33;;;;;18.78;64.56;101759.94;5038340;28;45368;-73
2023/06/05 06:42:12;;;;;;;;;14.33;14.00;;;;;18.80;62.43;101771.41;5037540;28;45313;-73
2023/06/05 06:44:38;;;;;;;;;13.33;10.33;;;;;18.85;64.55;101766.59;5045751;28;45330;-73
2023/06/05 06:47:04;;;;;;;;;13.33;12.67;;;;;18.78;63.63;101743.88;5046976;28;45263;-73
2023/06/05 06:49:29;;;;;;;;;12.33;11.00;;;;;18.90;63.24;101743.03;5045817;28;45588;-73
2023/06/05 06:51:55;;;;;;;;;13.00;11.67;;;;;19.09;63.65;101761.44;5041563;28;46078;-73
2023/06/05 06:54:21;;;;;;;;;10.67;9.00;;;;;19.13;64.69;101750.41;5057505;28;45288;-72
2023/06/05 06:56:47;;;;;;;;;13.67;10.67;;;;;19.21;62.26;101757.91;5053314;28;45308;-72
2023/06/05 06:59:13;;;;;;;;;11.00;10.67;;;;;19.33;62.37;101761.59;5040995;28;45433;-71
2023/06/05 07:01:46;;;;;;;;;12.67;10.33;;;;;19.39;61.65;101764.72;5038316;28;45450;-71
2023/06/05 07:04:16;;;;;;;;;10.67;9.00;;;;;19.44;61.68;101767.09;5037053;28;45316;-71
2023/06/05 07:06:43;;;;;;;;;11.33;11.33;;;;;19.37;60.45;101744.31;5039074;28;45341;-71
2023/06/05 07:09:09;;;;;;;;;15.00;10.00;;;;;19.55;60.75;101759.19;5055104;28;45566;-71
2023/06/05 07:11:35;;;;;;;;;9.67;9.67;;;;;19.61;60.42;101762.28;5052089;28;45398;-71
2023/06/05 07:14:00;;;;;;;;;12.00;11.67;;;;;19.55;60.24;101740.38;5044704;28;45524;-71
2023/06/05 07:16:26;;;;;;;;;8.67;8.00;;;;;19.74;60.62;101764.97;5031863;28;45269;-71
2023/06/05 07:18:52;;;;;;;;;10.67;9.33;;;;;19.80;60.06;101751.13;5060402;28;45505;-71
2023/06/05 07:21:17;;;;;;;;;10.33;9.67;;;;;20.01;61.33;101764.84;5026249;28;47506;-71
2023/06/05 07:23:44;;;;;;;;;12.00;11.00;;;;;20.11;59.59;101765.91;5037800;28;45611;-71
2023/06/05 07:26:10;;;;;;;;;9.67;9.67;;;;;20.26;60.38;101772.88;5042980;28;45454;-71
2023/06/05 07:28:35;;;;;;;;;11.67;10.00;;;;;20.43;59.57;101769.84;5040117;28;45418;-71
2023/06/05 07:31:03;;;;;;;;;11.67;11.67;;;;;20.46;58.47;101766.94;5054143;28;45283;-70
2023/06/05 07:33:28;;;;;;;;;10.00;9.67;;;;;20.52;59.25;101763.78;5060707;28;45333;-71
2023/06/05 07:35:54;;;;;;;;;13.33;11.33;;;;;20.62;57.82;101750.53;5053498;28;45502;-70
2023/06/05 07:38:19;;;;;;;;;20.00;13.67;;;;;20.78;57.05;101770.78;5045250;28;45684;-70
2023/06/05 07:40:45;;;;;;;;;9.33;9.33;;;;;20.87;57.33;101774.66;5054789;28;45324;-71
2023/06/05 07:43:14;;;;;;;;;13.67;11.33;;;;;20.99;56.87;101767.47;5042862;28;45427;-71
2023/06/05 07:45:40;;;;;;;;;10.33;10.33;;;;;21.07;55.06;101779.34;5049789;28;45334;-70
2023/06/05 07:48:05;;;;;;;;;10.00;9.33;;;;;21.21;56.07;101779.22;5051084;28;45257;-70
2023/06/05 07:50:31;;;;;;;;;10.00;8.33;;;;;21.29;55.86;101763.34;5060851;28;46087;-70
2023/06/05 07:52:56;;;;;;;;;8.67;6.00;;;;;21.41;55.29;101753.47;5060373;28;45339;-70
2023/06/05 07:55:21;;;;;;;;;9.33;9.33;;;;;21.51;54.91;101746.41;5061077;28;45440;-70
2023/06/05 07:57:47;;;;;;;;;11.67;9.00;;;;;21.75;55.34;101755.25;5061013;28;45255;-70
2023/06/05 08:00:13;;;;;;;;;10.33;9.33;;;;;21.92;54.23;101766.56;5047288;28;45514;-70
2023/06/05 08:02:38;;;;;;;;;11.33;9.00;;;;;22.01;53.69;101757.75;5055521;28;45555;-70
2023/06/05 08:05:06;;;;;;;;;10.33;7.33;;;;;22.09;53.75;101753.44;5055146;28;45325;-70
2023/06/05 08:07:31;;;;;;;;;10.33;9.33;;;;;22.24;51.48;101759.44;5056153;28;45462;-70
2023/06/05 08:09:57;;;;;;;;;8.67;7.00;;;;;22.29;52.00;101750.00;5050890;28;45397;-70
2023/06/05 08:12:22;;;;;;;;;8.67;8.67;;;;;22.36;52.14;101753.06;5060429;28;45296;-70
2023/06/05 08:14:47;;;;;;;;;11.00;9.33;;;;;22.34;51.19;101746.94;5061281;28;45575;-70
2023/06/05 08:17:13;;;;;;;;;10.67;9.33;;;;;22.49;51.18;101752.91;5060489;28;45316;-70
2023/06/05 08:19:38;;;;;;;;;8.00;6.33;;;;;22.61;50.08;101746.53;5051797;28;45321;-70
2023/06/05 08:22:04;;;;;;;;;9.00;7.00;;;;;22.75;50.92;101755.19;5058579;28;45339;-70
2023/06/05 08:24:31;;;;;;;;;9.67;8.67;;;;;22.84;51.96;101750.88;5057624;28;45441;-70
2023/06/05 08:26:59;;;;;;;;;11.00;8.00;;;;;22.91;50.72;101743.97;5060334;28;45354;-70
2023/06/05 08:29:24;;;;;;;;;11.67;9.67;;;;;22.98;49.59;101747.00;5060282;28;46604;-70
2023/06/05 08:31:50;;;;;;;;;8.67;7.33;;;;;23.06;49.50;101756.19;5059947;28;45279;-70
2023/06/05 08:34:15;;;;;;;;;7.67;7.67;;;;;23.12;49.90;101746.72;5048201;28;45528;-70
2023/06/05 08:36:42;;;;;;;;;5.00;5.00;;;;;23.21;51.26;101740.53;5057825;28;45379;-70
2023/06/05 08:39:08;;;;;;;;;5.67;4.00;;;;;23.32;49.74;101743.19;5044451;28;45308;-70
2023/06/05 08:41:35;;;;;;;;;9.33;8.33;;;;;23.40;48.36;101745.19;5060363;28;45269;-70
2023/06/05 08:44:01;;;;;;;;;11.00;7.00;;;;;23.38;49.68;101731.84;5060109;28;45275;-69
2023/06/05 08:46:32;;;;;;;;;12.33;8.67;;;;;23.57;48.94;101744.63;5056719;28;45473;-70
2023/06/05 08:49:06;;;;;;;;;5.33;5.33;;;;;23.70;49.40;101748.00;5046114;28;46113;-70
2023/06/05 08:51:32;;;;;;;;;7.00;6.67;;;;;23.79;47.13;101747.19;5059956;28;45245;-70
2023/06/05 08:54:12;;;;;;;;;8.33;8.33;;;;;23.96;47.29;101754.66;5059279;28;45725;-70
2023/06/05 08:56:39;;;;;;;;;8.33;8.33;;;;;24.03;48.00;101746.88;5059824;28;45201;-69
2023/06/05 08:59:06;;;;;;;;;11.33;8.33;;;;;24.10;46.43;101743.50;5059937;28;45267;-69
2023/06/05 09:01:37;;;;;;;;;6.33;6.33;;;;;24.13;47.48;101735.13;5059939;28;45385;-69
2023/06/05 09:04:02;;;;;;;;;8.67;8.00;;;;;24.25;45.70;101752.09;5055690;28;45339;-69
2023/06/05 09:06:28;;;;;;;;;7.67;7.67;;;;;24.29;47.22;101749.00;5059897;28;45236;-69
2023/06/05 09:08:54;;;;;;;;;7.00;6.00;;;;;24.45;47.98;101739.47;5045469;28;45410;-70
2023/06/05 09:11:39;;;;;;;;;5.00;4.33;;;;;24.66;46.44;101745.66;5060037;28;45403;-69
2023/06/05 09:14:04;;;;;;;;;7.67;6.00;;;;;24.64;46.07;101740.38;5060189;28;45311;-69
2023/06/05 09:16:38;;;;;;;;;7.00;7.00;;;;;24.81;46.14;101744.25;5059994;28;45379;-69
2023/06/05 09:19:04;;;;;;;;;7.00;6.00;;;;;24.87;45.84;101738.28;5051669;28;45280;-69
2023/06/05 09:21:32;;;;;;;;;10.33;9.00;;;;;24.95;44.85;101738.44;5046281;28;45327;-69
2023/06/05 09:24:18;;;;;;;;;8.67;7.00;;;;;25.06;45.87;101743.75;5037848;28;45319;-69
2023/06/05 09:26:55;;;;;;;;;6.00;6.00;;;;;25.17;45.86;101746.28;5059401;28;45211;-69
2023/06/05 09:29:24;;;;;;;;;8.33;7.00;;;;;25.13;44.42;101712.34;5059487;28;45883;-69
2023/06/05 09:31:51;;;;;;;;;8.33;8.33;;;;;25.27;45.80;101730.88;5058126;28;45489;-69
2023/06/05 09:34:32;;;;;;;;;7.00;6.00;;;;;25.36;45.22;101738.13;5057439;28;45331;-71
2023/06/05 09:36:59;;;;;;;;;7.00;7.00;;;;;25.44;44.78;101725.72;5057431;28;45323;-69
2023/06/05 09:39:26;;;;;;;;;8.33;7.00;;;;;25.46;44.86;101721.03;5044728;28;46251;-69
2023/06/05 09:41:53;;;;;;;;;5.00;5.00;;;;;25.58;42.74;101728.00;5054915;28;45335;-69
2023/06/05 09:44:19;;;;;;;;;9.33;6.67;;;;;25.60;43.97;101726.00;5063197;28;45300;-69
2023/06/05 09:47:07;;;;;;;;;7.00;6.33;;;;;25.78;42.98;101719.69;5056522;28;45453;-69
2023/06/05 09:49:32;;;;;;;;;7.67;7.00;;;;;25.94;43.13;101712.75;5040584;28;46751;-69
2023/06/05 09:51:59;;;;;;;;;5.33;5.33;;;;;26.10;44.46;101707.53;5062452;28;45272;-69
2023/06/05 09:54:27;;;;;;;;;5.33;5.00;;;;;26.27;42.68;101704.91;5062574;28;45307;-69
2023/06/05 09:56:57;;;;;;;;;6.33;6.33;;;;;26.33;41.90;101696.16;5044371;28;45386;-69
2023/06/05 09:59:22;;;;;;;;;7.33;6.33;;;;;26.48;41.01;101706.47;5062704;28;45284;-69
2023/06/05 10:01:50;;;;;;;;;6.00;5.00;;;;;26.44;39.47;101691.53;5044924;28;45755;-69
2023/06/05 10:04:20;;;;;;;;;7.33;5.67;;;;;26.64;41.19;101696.66;5058422;28;45341;-69
2023/06/05 10:06:46;;;;;;;;;5.33;5.33;;;;;26.86;40.90;101698.09;5056692;28;45455;-68
2023/06/05 10:09:14;;;;;;;;;5.33;5.33;;;;;26.95;39.76;101701.72;5054494;28;45402;-69
2023/06/05 10:11:41;;;;;;;;;6.33;5.00;;;;;27.01;38.48;101693.81;5062280;28;45320;-69
2023/06/05 10:14:09;;;;;;;;;9.67;7.00;;;;;27.06;39.47;101701.50;5062886;28;45320;-69
2023/06/05 10:16:35;;;;;;;;;7.33;5.00;;;;;27.06;39.06;101694.16;5062181;28;45446;-69
2023/06/05 10:19:03;;;;;;;;;6.67;6.67;;;;;27.09;38.91;101699.31;5054923;28;46305;-69
2023/06/05 10:21:29;;;;;;;;;6.67;6.00;;;;;27.24;38.69;101688.72;5037358;28;45414;-70
2023/06/05 10:24:02;;;;;;;;;5.00;5.00;;;;;27.34;39.33;101679.47;5040881;28;45407;-70
2023/06/05 10:26:27;;;;;;;;;8.00;6.00;;;;;27.49;38.84;101697.94;5062745;28;45470;-69
2023/06/05 10:29:25;;;;;;;;;4.67;4.67;;;;;27.66;38.09;101689.69;5061992;28;45571;-69
2023/06/05 10:32:02;;;;;;;;;6.00;6.00;;;;;27.85;37.77;101685.88;5031279;28;45976;-69
2023/06/05 10:34:47;;;;;;;;;6.33;6.33;;;;;27.88;37.55;101688.28;5017886;28;45258;-69
2023/06/05 10:37:30;;;;;;;;;6.00;6.00;;;;;27.97;36.94;101695.47;5048476;28;45446;-70
2023/06/05 10:39:56;;;;;;;;;6.67;5.00;;;;;28.10;36.87;101689.59;5054008;28;47186;-69
2023/06/05 10:42:29;;;;;;;;;5.33;5.00;;;;;28.20;38.17;101691.19;5047334;28;45422;-69
2023/06/05 10:44:55;;;;;;;;;6.00;6.00;;;;;28.23;37.00;101676.38;5048349;28;45343;-69
2023/06/05 10:47:32;;;;;;;;;10.33;7.67;;;;;28.32;37.95;101680.81;5050715;28;45549;-69
2023/06/05 10:50:16;;;;;;;;;9.67;8.00;;;;;28.37;36.36;101689.38;5061931;28;46118;-69
2023/06/05 10:52:42;;;;;;;;;8.00;8.00;;;;;28.48;36.88;101690.91;5061415;28;45326;-69
2023/06/05 10:55:12;;;;;;;;;6.67;6.67;;;;;28.54;37.37;101679.34;5062143;28;45415;-69
2023/06/05 10:57:55;;;;;;;;;8.33;7.00;;;;;28.64;37.82;101669.13;5061528;28;45421;-69
2023/06/05 11:00:21;;;;;;;;;6.00;6.00;;;;;28.60;36.75;101673.25;5044097;28;48385;-69
2023/06/05 11:02:48;;;;;;;;;7.00;7.00;;;;;28.69;36.77;101664.94;5053206;28;45247;-69
2023/06/05 11:05:13;;;;;;;;;5.00;5.00;;;;;28.86;36.39;101660.38;5061896;28;45288;-69
2023/06/05 11:07:40;;;;;;;;;6.00;6.00;;;;;28.91;36.76;101664.25;5043082;28;45320;-69
2023/06/05 11:10:10;;;;;;;;;6.00;6.00;;;;;28.95;35.82;101660.19;5051764;28;45322;-69
2023/06/05 11:12:35;;;;;;;;;5.33;5.00;;;;;28.96;37.12;101653.69;5031393;28;45405;-69
2023/06/05 11:15:05;;;;;;;;;6.00;6.00;;;;;28.97;36.51;101660.00;5052801;28;45357;-69
2023/06/05 11:17:37;;;;;;;;;4.33;4.33;;;;;28.98;35.96;101645.38;5061372;28;45514;-69
2023/06/05 11:20:09;;;;;;;;;7.33;7.33;;;;;29.04;35.91;101646.53;5054452;28;46181;-69
2023/06/05 11:22:53;;;;;;;;;5.67;4.00;;;;;29.05;35.50;101645.53;5034438;28;45237;-69